sensor_id;sensor_type;location;lat;lon;timestamp;P1;durP1;ratioP1;P2;durP2;ratioP2
4317;SDS011;2172;53.576;9.934;2022-08-03T00:01:00;9.87;;;8.93;;
4317;SDS011;2172;53.576;9.934;2022-08-03T00:03:28;10.90;;;9.80;;
4317;SDS011;2172;53.576;9.934;2022-08-03T00:05:55;11.03;;;9.90;;
4317;SDS011;2172;53.576;9.934;2022-08-03T00:08:23;10.77;;;9.67;;
4317;SDS011;2172;53.576;9.934;2022-08-03T00:10:51;10.30;;;9.40;;
4317;SDS011;2172;53.576;9.934;2022-08-03T00:13:18;11.07;;;9.97;;
4317;SDS011;2172;53.576;9.934;2022-08-03T00:15:47;10.27;;;9.37;;
4317;SDS011;2172;53.576;9.934;2022-08-03T00:18:15;11.03;;;10.07;;
4317;SDS011;2172;53.576;9.934;2022-08-03T00:20:42;11.10;;;10.10;;
4317;SDS011;2172;53.576;9.934;2022-08-03T00:23:10;11.67;;;9.73;;
4317;SDS011;2172;53.576;9.934;2022-08-03T00:25:37;12.90;;;10.63;;
4317;SDS011;2172;53.576;9.934;2022-08-03T00:28:05;11.57;;;9.57;;
4317;SDS011;2172;53.576;9.934;2022-08-03T00:30:33;10.90;;;10.00;;
4317;SDS011;2172;53.576;9.934;2022-08-03T00:33:02;11.43;;;10.53;;
4317;SDS011;2172;53.576;9.934;2022-08-03T00:35:29;10.90;;;10.00;;
4317;SDS011;2172;53.576;9.934;2022-08-03T00:37:57;11.77;;;10.53;;
4317;SDS011;2172;53.576;9.934;2022-08-03T00:40:24;13.27;;;9.73;;
4317;SDS011;2172;53.576;9.934;2022-08-03T00:42:52;14.80;;;10.67;;
4317;SDS011;2172;53.576;9.934;2022-08-03T00:45:22;11.27;;;10.20;;
4317;SDS011;2172;53.576;9.934;2022-08-03T00:47:50;11.13;;;10.23;;
4317;SDS011;2172;53.576;9.934;2022-08-03T00:50:20;10.63;;;9.63;;
4317;SDS011;2172;53.576;9.934;2022-08-03T00:52:49;10.80;;;9.90;;
4317;SDS011;2172;53.576;9.934;2022-08-03T00:55:18;11.20;;;10.10;;
4317;SDS011;2172;53.576;9.934;2022-08-03T00:57:46;11.77;;;10.70;;
4317;SDS011;2172;53.576;9.934;2022-08-03T01:00:16;14.13;;;9.77;;
4317;SDS011;2172;53.576;9.934;2022-08-03T01:02:45;10.30;;;9.40;;
4317;SDS011;2172;53.576;9.934;2022-08-03T01:05:13;10.30;;;9.40;;
4317;SDS011;2172;53.576;9.934;2022-08-03T01:07:45;11.23;;;10.20;;
4317;SDS011;2172;53.576;9.934;2022-08-03T01:10:21;10.70;;;9.80;;
4317;SDS011;2172;53.576;9.934;2022-08-03T01:12:56;11.60;;;10.57;;
4317;SDS011;2172;53.576;9.934;2022-08-03T01:15:28;11.63;;;10.30;;
4317;SDS011;2172;53.576;9.934;2022-08-03T01:17:58;11.37;;;10.27;;
4317;SDS011;2172;53.576;9.934;2022-08-03T01:20:30;10.80;;;9.90;;
4317;SDS011;2172;53.576;9.934;2022-08-03T01:23:02;13.27;;;10.97;;
4317;SDS011;2172;53.576;9.934;2022-08-03T01:25:49;12.07;;;10.67;;
4317;SDS011;2172;53.576;9.934;2022-08-03T01:28:32;11.47;;;10.30;;
4317;SDS011;2172;53.576;9.934;2022-08-03T01:31:22;11.90;;;10.43;;
4317;SDS011;2172;53.576;9.934;2022-08-03T01:33:54;11.97;;;10.77;;
4317;SDS011;2172;53.576;9.934;2022-08-03T01:36:30;11.33;;;10.33;;
4317;SDS011;2172;53.576;9.934;2022-08-03T01:39:01;11.87;;;10.67;;
4317;SDS011;2172;53.576;9.934;2022-08-03T01:41:34;12.10;;;10.87;;
4317;SDS011;2172;53.576;9.934;2022-08-03T01:44:06;11.17;;;10.27;;
4317;SDS011;2172;53.576;9.934;2022-08-03T01:46:36;11.77;;;10.77;;
4317;SDS011;2172;53.576;9.934;2022-08-03T01:49:06;13.40;;;12.30;;
4317;SDS011;2172;53.576;9.934;2022-08-03T01:51:36;11.30;;;10.27;;
4317;SDS011;2172;53.576;9.934;2022-08-03T01:54:04;12.83;;;11.73;;
4317;SDS011;2172;53.576;9.934;2022-08-03T01:56:32;16.07;;;14.40;;
4317;SDS011;2172;53.576;9.934;2022-08-03T01:58:59;12.50;;;11.13;;
4317;SDS011;2172;53.576;9.934;2022-08-03T02:01:28;11.50;;;10.47;;
4317;SDS011;2172;53.576;9.934;2022-08-03T02:03:58;11.83;;;10.73;;
4317;SDS011;2172;53.576;9.934;2022-08-03T02:06:26;14.40;;;12.50;;
4317;SDS011;2172;53.576;9.934;2022-08-03T02:08:56;12.10;;;10.87;;
4317;SDS011;2172;53.576;9.934;2022-08-03T02:11:26;12.00;;;11.00;;
4317;SDS011;2172;53.576;9.934;2022-08-03T02:13:53;12.57;;;11.50;;
4317;SDS011;2172;53.576;9.934;2022-08-03T02:16:22;12.40;;;11.30;;
4317;SDS011;2172;53.576;9.934;2022-08-03T02:18:50;11.77;;;10.77;;
4317;SDS011;2172;53.576;9.934;2022-08-03T02:21:20;11.73;;;10.83;;
4317;SDS011;2172;53.576;9.934;2022-08-03T02:23:49;11.10;;;10.10;;
4317;SDS011;2172;53.576;9.934;2022-08-03T02:26:16;12.07;;;10.90;;
4317;SDS011;2172;53.576;9.934;2022-08-03T02:28:46;11.93;;;10.93;;
4317;SDS011;2172;53.576;9.934;2022-08-03T02:31:17;11.20;;;10.30;;
4317;SDS011;2172;53.576;9.934;2022-08-03T02:33:47;12.33;;;11.13;;
4317;SDS011;2172;53.576;9.934;2022-08-03T02:36:15;11.57;;;10.60;;
4317;SDS011;2172;53.576;9.934;2022-08-03T02:38:48;11.57;;;10.53;;
4317;SDS011;2172;53.576;9.934;2022-08-03T02:41:19;11.23;;;10.33;;
4317;SDS011;2172;53.576;9.934;2022-08-03T02:43:48;11.77;;;10.57;;
4317;SDS011;2172;53.576;9.934;2022-08-03T02:46:18;11.97;;;10.97;;
4317;SDS011;2172;53.576;9.934;2022-08-03T02:48:46;12.83;;;11.53;;
4317;SDS011;2172;53.576;9.934;2022-08-03T02:51:14;11.97;;;11.00;;
4317;SDS011;2172;53.576;9.934;2022-08-03T02:53:45;11.43;;;10.43;;
4317;SDS011;2172;53.576;9.934;2022-08-03T02:56:13;11.03;;;10.13;;
4317;SDS011;2172;53.576;9.934;2022-08-03T02:58:42;12.17;;;10.93;;
4317;SDS011;2172;53.576;9.934;2022-08-03T03:01:09;12.20;;;11.07;;
4317;SDS011;2172;53.576;9.934;2022-08-03T03:03:38;11.63;;;10.67;;
4317;SDS011;2172;53.576;9.934;2022-08-03T03:06:06;12.57;;;11.47;;
4317;SDS011;2172;53.576;9.934;2022-08-03T03:08:35;11.23;;;10.33;;
4317;SDS011;2172;53.576;9.934;2022-08-03T03:11:04;11.70;;;10.80;;
4317;SDS011;2172;53.576;9.934;2022-08-03T03:13:33;12.10;;;11.10;;
4317;SDS011;2172;53.576;9.934;2022-08-03T03:16:01;11.90;;;10.90;;
4317;SDS011;2172;53.576;9.934;2022-08-03T03:18:30;11.77;;;10.67;;
4317;SDS011;2172;53.576;9.934;2022-08-03T03:20:58;13.03;;;11.93;;
4317;SDS011;2172;53.576;9.934;2022-08-03T03:23:27;12.13;;;11.17;;
4317;SDS011;2172;53.576;9.934;2022-08-03T03:25:55;13.40;;;12.30;;
4317;SDS011;2172;53.576;9.934;2022-08-03T03:28:24;12.70;;;11.70;;
4317;SDS011;2172;53.576;9.934;2022-08-03T03:30:52;13.10;;;11.10;;
4317;SDS011;2172;53.576;9.934;2022-08-03T03:33:19;11.67;;;10.57;;
4317;SDS011;2172;53.576;9.934;2022-08-03T03:35:47;12.40;;;11.10;;
4317;SDS011;2172;53.576;9.934;2022-08-03T03:38:15;12.90;;;11.17;;
4317;SDS011;2172;53.576;9.934;2022-08-03T03:40:43;11.60;;;10.40;;
4317;SDS011;2172;53.576;9.934;2022-08-03T03:43:11;11.17;;;10.27;;
4317;SDS011;2172;53.576;9.934;2022-08-03T03:45:40;12.00;;;11.10;;
4317;SDS011;2172;53.576;9.934;2022-08-03T03:48:08;12.30;;;11.10;;
4317;SDS011;2172;53.576;9.934;2022-08-03T03:50:36;18.87;;;15.40;;
4317;SDS011;2172;53.576;9.934;2022-08-03T03:53:07;13.90;;;12.50;;
4317;SDS011;2172;53.576;9.934;2022-08-03T03:55:35;12.83;;;11.73;;
4317;SDS011;2172;53.576;9.934;2022-08-03T03:58:02;13.30;;;12.13;;
4317;SDS011;2172;53.576;9.934;2022-08-03T04:00:30;13.87;;;12.50;;
4317;SDS011;2172;53.576;9.934;2022-08-03T04:02:59;14.20;;;12.73;;
4317;SDS011;2172;53.576;9.934;2022-08-03T04:05:26;12.43;;;11.23;;
4317;SDS011;2172;53.576;9.934;2022-08-03T04:08:14;13.10;;;12.07;;
4317;SDS011;2172;53.576;9.934;2022-08-03T04:11:16;13.30;;;12.00;;
4317;SDS011;2172;53.576;9.934;2022-08-03T04:13:46;13.67;;;12.53;;
4317;SDS011;2172;53.576;9.934;2022-08-03T04:16:17;12.40;;;11.20;;
4317;SDS011;2172;53.576;9.934;2022-08-03T04:18:48;12.17;;;11.17;;
4317;SDS011;2172;53.576;9.934;2022-08-03T04:21:18;14.27;;;13.00;;
4317;SDS011;2172;53.576;9.934;2022-08-03T04:23:48;12.80;;;11.80;;
4317;SDS011;2172;53.576;9.934;2022-08-03T04:26:19;13.57;;;12.57;;
4317;SDS011;2172;53.576;9.934;2022-08-03T04:28:47;16.10;;;13.10;;
4317;SDS011;2172;53.576;9.934;2022-08-03T04:31:16;14.13;;;12.80;;
4317;SDS011;2172;53.576;9.934;2022-08-03T04:33:45;13.70;;;12.50;;
4317;SDS011;2172;53.576;9.934;2022-08-03T04:36:16;13.30;;;12.10;;
4317;SDS011;2172;53.576;9.934;2022-08-03T04:38:51;13.70;;;12.57;;
4317;SDS011;2172;53.576;9.934;2022-08-03T04:41:22;14.00;;;12.70;;
4317;SDS011;2172;53.576;9.934;2022-08-03T04:43:52;11.70;;;10.80;;
4317;SDS011;2172;53.576;9.934;2022-08-03T04:46:21;15.67;;;14.03;;
4317;SDS011;2172;53.576;9.934;2022-08-03T04:48:52;13.90;;;12.03;;
4317;SDS011;2172;53.576;9.934;2022-08-03T04:51:21;12.73;;;11.60;;
4317;SDS011;2172;53.576;9.934;2022-08-03T04:53:48;12.43;;;11.23;;
4317;SDS011;2172;53.576;9.934;2022-08-03T04:56:16;12.30;;;11.30;;
4317;SDS011;2172;53.576;9.934;2022-08-03T04:58:43;12.00;;;11.00;;
4317;SDS011;2172;53.576;9.934;2022-08-03T05:01:11;12.37;;;11.03;;
4317;SDS011;2172;53.576;9.934;2022-08-03T05:03:38;14.03;;;11.67;;
4317;SDS011;2172;53.576;9.934;2022-08-03T05:06:07;13.67;;;11.67;;
4317;SDS011;2172;53.576;9.934;2022-08-03T05:08:35;12.70;;;11.40;;
4317;SDS011;2172;53.576;9.934;2022-08-03T05:11:02;14.77;;;10.90;;
4317;SDS011;2172;53.576;9.934;2022-08-03T05:13:30;12.70;;;11.47;;
4317;SDS011;2172;53.576;9.934;2022-08-03T05:15:57;12.80;;;11.30;;
4317;SDS011;2172;53.576;9.934;2022-08-03T05:18:26;13.93;;;12.37;;
4317;SDS011;2172;53.576;9.934;2022-08-03T05:20:53;12.67;;;11.43;;
4317;SDS011;2172;53.576;9.934;2022-08-03T05:23:22;14.30;;;10.77;;
4317;SDS011;2172;53.576;9.934;2022-08-03T05:25:49;14.90;;;10.97;;
4317;SDS011;2172;53.576;9.934;2022-08-03T05:28:17;14.53;;;11.60;;
4317;SDS011;2172;53.576;9.934;2022-08-03T05:30:44;14.20;;;11.53;;
4317;SDS011;2172;53.576;9.934;2022-08-03T05:33:12;14.63;;;11.30;;
4317;SDS011;2172;53.576;9.934;2022-08-03T05:35:39;16.77;;;11.90;;
4317;SDS011;2172;53.576;9.934;2022-08-03T05:38:07;11.30;;;10.20;;
4317;SDS011;2172;53.576;9.934;2022-08-03T05:40:36;12.97;;;10.97;;
4317;SDS011;2172;53.576;9.934;2022-08-03T05:43:03;13.50;;;10.40;;
4317;SDS011;2172;53.576;9.934;2022-08-03T05:45:31;11.53;;;10.37;;
4317;SDS011;2172;53.576;9.934;2022-08-03T05:47:58;12.77;;;11.07;;
4317;SDS011;2172;53.576;9.934;2022-08-03T05:50:25;16.73;;;11.10;;
4317;SDS011;2172;53.576;9.934;2022-08-03T05:52:54;12.47;;;11.27;;
4317;SDS011;2172;53.576;9.934;2022-08-03T05:55:22;11.47;;;10.43;;
4317;SDS011;2172;53.576;9.934;2022-08-03T05:57:51;9.87;;;8.83;;
4317;SDS011;2172;53.576;9.934;2022-08-03T06:00:19;13.80;;;9.87;;
4317;SDS011;2172;53.576;9.934;2022-08-03T06:02:46;11.00;;;9.80;;
4317;SDS011;2172;53.576;9.934;2022-08-03T06:05:14;12.93;;;10.27;;
4317;SDS011;2172;53.576;9.934;2022-08-03T06:07:41;9.27;;;8.53;;
4317;SDS011;2172;53.576;9.934;2022-08-03T06:10:08;9.97;;;8.97;;
4317;SDS011;2172;53.576;9.934;2022-08-03T06:12:36;10.37;;;6.93;;
4317;SDS011;2172;53.576;9.934;2022-08-03T06:15:07;9.57;;;7.40;;
4317;SDS011;2172;53.576;9.934;2022-08-03T06:17:42;8.80;;;6.97;;
4317;SDS011;2172;53.576;9.934;2022-08-03T06:20:11;9.47;;;7.40;;
4317;SDS011;2172;53.576;9.934;2022-08-03T06:22:38;7.93;;;7.20;;
4317;SDS011;2172;53.576;9.934;2022-08-03T06:25:06;7.80;;;6.47;;
4317;SDS011;2172;53.576;9.934;2022-08-03T06:27:34;8.20;;;6.70;;
4317;SDS011;2172;53.576;9.934;2022-08-03T06:30:04;8.50;;;7.40;;
4317;SDS011;2172;53.576;9.934;2022-08-03T06:32:35;11.03;;;8.13;;
4317;SDS011;2172;53.576;9.934;2022-08-03T06:35:02;11.50;;;7.50;;
4317;SDS011;2172;53.576;9.934;2022-08-03T06:37:30;12.73;;;7.10;;
4317;SDS011;2172;53.576;9.934;2022-08-03T06:40:02;7.30;;;6.60;;
4317;SDS011;2172;53.576;9.934;2022-08-03T06:42:30;9.87;;;6.70;;
4317;SDS011;2172;53.576;9.934;2022-08-03T06:44:58;8.73;;;6.80;;
4317;SDS011;2172;53.576;9.934;2022-08-03T06:47:26;6.20;;;5.57;;
4317;SDS011;2172;53.576;9.934;2022-08-03T06:49:54;7.90;;;7.10;;
4317;SDS011;2172;53.576;9.934;2022-08-03T06:52:21;8.37;;;7.57;;
4317;SDS011;2172;53.576;9.934;2022-08-03T06:54:49;8.10;;;6.80;;
4317;SDS011;2172;53.576;9.934;2022-08-03T06:57:16;7.63;;;6.93;;
4317;SDS011;2172;53.576;9.934;2022-08-03T06:59:44;9.50;;;7.07;;
4317;SDS011;2172;53.576;9.934;2022-08-03T07:02:11;9.60;;;7.77;;
4317;SDS011;2172;53.576;9.934;2022-08-03T07:04:40;7.27;;;6.57;;
4317;SDS011;2172;53.576;9.934;2022-08-03T07:07:07;8.23;;;6.40;;
4317;SDS011;2172;53.576;9.934;2022-08-03T07:09:35;8.03;;;5.67;;
4317;SDS011;2172;53.576;9.934;2022-08-03T07:12:02;10.77;;;6.23;;
4317;SDS011;2172;53.576;9.934;2022-08-03T07:14:31;7.43;;;5.57;;
4317;SDS011;2172;53.576;9.934;2022-08-03T07:16:59;9.07;;;4.80;;
4317;SDS011;2172;53.576;9.934;2022-08-03T07:19:26;5.60;;;5.10;;
4317;SDS011;2172;53.576;9.934;2022-08-03T07:21:55;6.47;;;4.90;;
4317;SDS011;2172;53.576;9.934;2022-08-03T07:24:23;5.67;;;4.53;;
4317;SDS011;2172;53.576;9.934;2022-08-03T07:26:50;4.50;;;4.10;;
4317;SDS011;2172;53.576;9.934;2022-08-03T07:29:18;6.80;;;4.90;;
4317;SDS011;2172;53.576;9.934;2022-08-03T07:31:46;4.57;;;4.17;;
4317;SDS011;2172;53.576;9.934;2022-08-03T07:34:13;7.50;;;4.43;;
4317;SDS011;2172;53.576;9.934;2022-08-03T07:36:41;5.47;;;4.00;;
4317;SDS011;2172;53.576;9.934;2022-08-03T07:39:10;6.00;;;5.40;;
4317;SDS011;2172;53.576;9.934;2022-08-03T07:41:37;4.93;;;4.50;;
4317;SDS011;2172;53.576;9.934;2022-08-03T07:44:05;5.23;;;4.83;;
4317;SDS011;2172;53.576;9.934;2022-08-03T07:46:32;5.13;;;4.63;;
4317;SDS011;2172;53.576;9.934;2022-08-03T07:48:59;9.60;;;4.47;;
4317;SDS011;2172;53.576;9.934;2022-08-03T07:51:27;8.13;;;4.60;;
4317;SDS011;2172;53.576;9.934;2022-08-03T07:53:54;4.70;;;4.30;;
4317;SDS011;2172;53.576;9.934;2022-08-03T07:56:23;4.50;;;4.20;;
4317;SDS011;2172;53.576;9.934;2022-08-03T07:58:52;6.00;;;4.30;;
4317;SDS011;2172;53.576;9.934;2022-08-03T08:01:20;5.17;;;4.60;;
4317;SDS011;2172;53.576;9.934;2022-08-03T08:03:48;4.27;;;3.90;;
4317;SDS011;2172;53.576;9.934;2022-08-03T08:06:16;4.70;;;4.30;;
4317;SDS011;2172;53.576;9.934;2022-08-03T08:08:43;6.80;;;4.30;;
4317;SDS011;2172;53.576;9.934;2022-08-03T08:11:11;4.60;;;4.17;;
4317;SDS011;2172;53.576;9.934;2022-08-03T08:13:40;5.80;;;4.40;;
4317;SDS011;2172;53.576;9.934;2022-08-03T08:16:07;3.93;;;3.63;;
4317;SDS011;2172;53.576;9.934;2022-08-03T08:18:35;4.17;;;3.83;;
4317;SDS011;2172;53.576;9.934;2022-08-03T08:21:03;4.37;;;3.93;;
4317;SDS011;2172;53.576;9.934;2022-08-03T08:23:31;4.57;;;3.80;;
4317;SDS011;2172;53.576;9.934;2022-08-03T08:25:58;4.20;;;3.63;;
4317;SDS011;2172;53.576;9.934;2022-08-03T08:28:26;5.60;;;4.07;;
4317;SDS011;2172;53.576;9.934;2022-08-03T08:30:54;5.97;;;4.00;;
4317;SDS011;2172;53.576;9.934;2022-08-03T08:33:22;5.67;;;4.37;;
4317;SDS011;2172;53.576;9.934;2022-08-03T08:35:50;4.37;;;4.07;;
4317;SDS011;2172;53.576;9.934;2022-08-03T08:38:18;7.87;;;4.20;;
4317;SDS011;2172;53.576;9.934;2022-08-03T08:40:46;10.73;;;4.83;;
4317;SDS011;2172;53.576;9.934;2022-08-03T08:43:14;9.83;;;4.00;;
4317;SDS011;2172;53.576;9.934;2022-08-03T08:45:41;4.50;;;4.10;;
4317;SDS011;2172;53.576;9.934;2022-08-03T08:48:11;4.47;;;3.80;;
4317;SDS011;2172;53.576;9.934;2022-08-03T08:50:39;4.20;;;3.90;;
4317;SDS011;2172;53.576;9.934;2022-08-03T08:53:06;4.03;;;3.60;;
4317;SDS011;2172;53.576;9.934;2022-08-03T08:55:36;8.20;;;4.63;;
4317;SDS011;2172;53.576;9.934;2022-08-03T08:58:04;5.30;;;3.80;;
4317;SDS011;2172;53.576;9.934;2022-08-03T09:00:31;6.47;;;3.77;;
4317;SDS011;2172;53.576;9.934;2022-08-03T09:02:59;5.37;;;3.60;;
4317;SDS011;2172;53.576;9.934;2022-08-03T09:05:28;6.63;;;3.83;;
4317;SDS011;2172;53.576;9.934;2022-08-03T09:07:56;3.90;;;3.50;;
4317;SDS011;2172;53.576;9.934;2022-08-03T09:10:24;8.37;;;4.70;;
4317;SDS011;2172;53.576;9.934;2022-08-03T09:12:51;3.83;;;3.53;;
4317;SDS011;2172;53.576;9.934;2022-08-03T09:15:20;7.03;;;3.63;;
4317;SDS011;2172;53.576;9.934;2022-08-03T09:17:49;7.10;;;2.90;;
4317;SDS011;2172;53.576;9.934;2022-08-03T09:20:18;7.07;;;3.50;;
4317;SDS011;2172;53.576;9.934;2022-08-03T09:22:55;4.47;;;3.10;;
4317;SDS011;2172;53.576;9.934;2022-08-03T09:25:30;3.60;;;3.10;;
4317;SDS011;2172;53.576;9.934;2022-08-03T09:28:05;6.10;;;3.50;;
4317;SDS011;2172;53.576;9.934;2022-08-03T09:30:35;6.63;;;3.43;;
4317;SDS011;2172;53.576;9.934;2022-08-03T09:33:04;5.17;;;3.27;;
4317;SDS011;2172;53.576;9.934;2022-08-03T09:35:33;5.20;;;3.70;;
4317;SDS011;2172;53.576;9.934;2022-08-03T09:38:11;4.17;;;2.97;;
4317;SDS011;2172;53.576;9.934;2022-08-03T09:40:40;4.60;;;3.30;;
4317;SDS011;2172;53.576;9.934;2022-08-03T09:43:08;6.20;;;3.20;;
4317;SDS011;2172;53.576;9.934;2022-08-03T09:45:36;3.17;;;2.90;;
4317;SDS011;2172;53.576;9.934;2022-08-03T09:48:18;5.90;;;3.40;;
4317;SDS011;2172;53.576;9.934;2022-08-03T09:50:47;5.27;;;2.83;;
4317;SDS011;2172;53.576;9.934;2022-08-03T09:53:17;4.50;;;2.60;;
4317;SDS011;2172;53.576;9.934;2022-08-03T09:55:55;4.67;;;3.10;;
4317;SDS011;2172;53.576;9.934;2022-08-03T09:58:25;3.97;;;2.90;;
4317;SDS011;2172;53.576;9.934;2022-08-03T10:00:54;4.00;;;3.27;;
4317;SDS011;2172;53.576;9.934;2022-08-03T10:03:24;7.30;;;3.00;;
4317;SDS011;2172;53.576;9.934;2022-08-03T10:05:53;6.00;;;3.17;;
4317;SDS011;2172;53.576;9.934;2022-08-03T10:08:22;8.00;;;3.20;;
4317;SDS011;2172;53.576;9.934;2022-08-03T10:10:50;6.93;;;3.17;;
4317;SDS011;2172;53.576;9.934;2022-08-03T10:13:19;7.73;;;3.40;;
4317;SDS011;2172;53.576;9.934;2022-08-03T10:15:47;3.20;;;2.57;;
4317;SDS011;2172;53.576;9.934;2022-08-03T10:18:15;4.03;;;2.57;;
4317;SDS011;2172;53.576;9.934;2022-08-03T10:20:44;5.57;;;2.77;;
4317;SDS011;2172;53.576;9.934;2022-08-03T10:23:15;6.23;;;2.93;;
4317;SDS011;2172;53.576;9.934;2022-08-03T10:25:47;6.73;;;3.30;;
4317;SDS011;2172;53.576;9.934;2022-08-03T10:28:18;5.33;;;2.70;;
4317;SDS011;2172;53.576;9.934;2022-08-03T10:30:47;3.47;;;3.17;;
4317;SDS011;2172;53.576;9.934;2022-08-03T10:33:16;10.60;;;2.97;;
4317;SDS011;2172;53.576;9.934;2022-08-03T10:35:45;3.90;;;2.70;;
4317;SDS011;2172;53.576;9.934;2022-08-03T10:38:15;6.83;;;3.60;;
4317;SDS011;2172;53.576;9.934;2022-08-03T10:40:46;4.13;;;2.83;;
4317;SDS011;2172;53.576;9.934;2022-08-03T10:43:20;4.63;;;3.40;;
4317;SDS011;2172;53.576;9.934;2022-08-03T10:45:51;4.77;;;3.33;;
4317;SDS011;2172;53.576;9.934;2022-08-03T10:48:18;6.30;;;2.93;;
4317;SDS011;2172;53.576;9.934;2022-08-03T10:50:47;6.20;;;2.67;;
4317;SDS011;2172;53.576;9.934;2022-08-03T10:53:15;5.77;;;3.60;;
4317;SDS011;2172;53.576;9.934;2022-08-03T10:55:43;6.10;;;3.23;;
4317;SDS011;2172;53.576;9.934;2022-08-03T10:58:49;3.57;;;2.60;;
4317;SDS011;2172;53.576;9.934;2022-08-03T11:01:17;4.67;;;2.67;;
4317;SDS011;2172;53.576;9.934;2022-08-03T11:06:41;6.53;;;3.47;;
4317;SDS011;2172;53.576;9.934;2022-08-03T11:09:13;3.90;;;2.43;;
4317;SDS011;2172;53.576;9.934;2022-08-03T11:11:42;10.03;;;2.83;;
4317;SDS011;2172;53.576;9.934;2022-08-03T11:14:12;5.93;;;2.70;;
4317;SDS011;2172;53.576;9.934;2022-08-03T11:16:42;4.57;;;3.07;;
4317;SDS011;2172;53.576;9.934;2022-08-03T11:19:12;3.63;;;2.80;;
4317;SDS011;2172;53.576;9.934;2022-08-03T11:21:56;5.80;;;3.00;;
4317;SDS011;2172;53.576;9.934;2022-08-03T11:27:24;4.67;;;2.47;;
4317;SDS011;2172;53.576;9.934;2022-08-03T11:29:57;5.37;;;2.80;;
4317;SDS011;2172;53.576;9.934;2022-08-03T11:35:33;8.80;;;2.73;;
4317;SDS011;2172;53.576;9.934;2022-08-03T11:38:21;3.63;;;2.73;;
4317;SDS011;2172;53.576;9.934;2022-08-03T11:40:49;5.23;;;2.57;;
4317;SDS011;2172;53.576;9.934;2022-08-03T11:46:13;6.90;;;3.00;;
4317;SDS011;2172;53.576;9.934;2022-08-03T11:48:46;5.30;;;3.53;;
4317;SDS011;2172;53.576;9.934;2022-08-03T11:51:18;3.63;;;2.90;;
4317;SDS011;2172;53.576;9.934;2022-08-03T11:53:50;6.60;;;3.20;;
4317;SDS011;2172;53.576;9.934;2022-08-03T11:56:18;3.77;;;3.10;;
4317;SDS011;2172;53.576;9.934;2022-08-03T11:58:46;4.67;;;2.73;;
4317;SDS011;2172;53.576;9.934;2022-08-03T12:01:16;3.87;;;2.90;;
4317;SDS011;2172;53.576;9.934;2022-08-03T12:03:44;7.20;;;2.93;;
4317;SDS011;2172;53.576;9.934;2022-08-03T12:06:13;6.30;;;2.30;;
4317;SDS011;2172;53.576;9.934;2022-08-03T12:08:41;5.70;;;3.30;;
4317;SDS011;2172;53.576;9.934;2022-08-03T12:11:13;16.23;;;4.43;;
4317;SDS011;2172;53.576;9.934;2022-08-03T12:13:42;5.80;;;2.77;;
4317;SDS011;2172;53.576;9.934;2022-08-03T12:16:17;6.27;;;4.53;;
4317;SDS011;2172;53.576;9.934;2022-08-03T12:18:53;3.57;;;2.60;;
4317;SDS011;2172;53.576;9.934;2022-08-03T12:21:21;4.70;;;2.83;;
4317;SDS011;2172;53.576;9.934;2022-08-03T12:23:49;7.63;;;2.80;;
4317;SDS011;2172;53.576;9.934;2022-08-03T12:26:17;5.00;;;2.73;;
4317;SDS011;2172;53.576;9.934;2022-08-03T12:28:46;4.40;;;2.50;;
4317;SDS011;2172;53.576;9.934;2022-08-03T12:31:14;6.57;;;2.90;;
4317;SDS011;2172;53.576;9.934;2022-08-03T12:33:59;6.27;;;3.20;;
4317;SDS011;2172;53.576;9.934;2022-08-03T12:36:29;8.00;;;2.80;;
4317;SDS011;2172;53.576;9.934;2022-08-03T12:38:58;4.13;;;2.67;;
4317;SDS011;2172;53.576;9.934;2022-08-03T12:41:27;6.57;;;2.83;;
4317;SDS011;2172;53.576;9.934;2022-08-03T12:43:56;4.73;;;2.77;;
4317;SDS011;2172;53.576;9.934;2022-08-03T12:46:29;5.53;;;2.77;;
4317;SDS011;2172;53.576;9.934;2022-08-03T12:48:59;8.07;;;3.27;;
4317;SDS011;2172;53.576;9.934;2022-08-03T12:51:30;8.50;;;3.07;;
4317;SDS011;2172;53.576;9.934;2022-08-03T12:53:59;5.20;;;2.70;;
4317;SDS011;2172;53.576;9.934;2022-08-03T12:56:27;6.40;;;2.80;;
4317;SDS011;2172;53.576;9.934;2022-08-03T12:58:55;5.40;;;2.80;;
4317;SDS011;2172;53.576;9.934;2022-08-03T13:01:22;10.53;;;3.17;;
4317;SDS011;2172;53.576;9.934;2022-08-03T13:03:53;11.53;;;4.13;;
4317;SDS011;2172;53.576;9.934;2022-08-03T13:06:21;10.90;;;3.47;;
4317;SDS011;2172;53.576;9.934;2022-08-03T13:09:00;5.33;;;2.57;;
4317;SDS011;2172;53.576;9.934;2022-08-03T13:11:29;6.20;;;3.00;;
4317;SDS011;2172;53.576;9.934;2022-08-03T13:13:56;7.53;;;4.10;;
4317;SDS011;2172;53.576;9.934;2022-08-03T13:16:24;3.90;;;2.73;;
4317;SDS011;2172;53.576;9.934;2022-08-03T13:18:53;5.53;;;2.70;;
4317;SDS011;2172;53.576;9.934;2022-08-03T13:21:20;5.53;;;2.77;;
4317;SDS011;2172;53.576;9.934;2022-08-03T13:23:48;7.50;;;3.17;;
4317;SDS011;2172;53.576;9.934;2022-08-03T13:26:16;3.40;;;3.00;;
4317;SDS011;2172;53.576;9.934;2022-08-03T13:28:43;7.20;;;3.20;;
4317;SDS011;2172;53.576;9.934;2022-08-03T13:31:10;5.77;;;2.63;;
4317;SDS011;2172;53.576;9.934;2022-08-03T13:33:38;8.10;;;3.30;;
4317;SDS011;2172;53.576;9.934;2022-08-03T13:36:07;5.30;;;3.30;;
4317;SDS011;2172;53.576;9.934;2022-08-03T13:38:34;6.33;;;2.87;;
4317;SDS011;2172;53.576;9.934;2022-08-03T13:41:02;4.77;;;3.10;;
4317;SDS011;2172;53.576;9.934;2022-08-03T13:43:29;5.17;;;2.90;;
4317;SDS011;2172;53.576;9.934;2022-08-03T13:45:56;5.17;;;2.93;;
4317;SDS011;2172;53.576;9.934;2022-08-03T13:48:24;5.17;;;2.87;;
4317;SDS011;2172;53.576;9.934;2022-08-03T13:50:51;6.50;;;3.50;;
4317;SDS011;2172;53.576;9.934;2022-08-03T13:53:20;5.67;;;3.60;;
4317;SDS011;2172;53.576;9.934;2022-08-03T13:55:48;5.17;;;3.03;;
4317;SDS011;2172;53.576;9.934;2022-08-03T13:58:15;4.33;;;2.77;;
4317;SDS011;2172;53.576;9.934;2022-08-03T14:00:42;5.20;;;3.30;;
4317;SDS011;2172;53.576;9.934;2022-08-03T14:03:10;6.70;;;2.73;;
4317;SDS011;2172;53.576;9.934;2022-08-03T14:05:37;3.37;;;2.97;;
4317;SDS011;2172;53.576;9.934;2022-08-03T14:08:05;7.77;;;2.50;;
4317;SDS011;2172;53.576;9.934;2022-08-03T14:10:35;3.87;;;2.67;;
4317;SDS011;2172;53.576;9.934;2022-08-03T14:13:04;7.37;;;3.17;;
4317;SDS011;2172;53.576;9.934;2022-08-03T14:15:31;6.30;;;2.70;;
4317;SDS011;2172;53.576;9.934;2022-08-03T14:17:59;5.50;;;3.23;;
4317;SDS011;2172;53.576;9.934;2022-08-03T14:20:26;5.50;;;2.93;;
4317;SDS011;2172;53.576;9.934;2022-08-03T14:22:54;6.97;;;3.10;;
4317;SDS011;2172;53.576;9.934;2022-08-03T14:25:21;8.40;;;3.13;;
4317;SDS011;2172;53.576;9.934;2022-08-03T14:27:50;3.97;;;3.30;;
4317;SDS011;2172;53.576;9.934;2022-08-03T14:30:18;5.00;;;2.83;;
4317;SDS011;2172;53.576;9.934;2022-08-03T14:32:45;5.63;;;3.00;;
4317;SDS011;2172;53.576;9.934;2022-08-03T14:35:13;3.67;;;2.80;;
4317;SDS011;2172;53.576;9.934;2022-08-03T14:37:40;7.17;;;3.20;;
4317;SDS011;2172;53.576;9.934;2022-08-03T14:40:08;5.63;;;2.80;;
4317;SDS011;2172;53.576;9.934;2022-08-03T14:42:35;6.23;;;2.93;;
4317;SDS011;2172;53.576;9.934;2022-08-03T14:45:05;5.33;;;2.80;;
4317;SDS011;2172;53.576;9.934;2022-08-03T14:47:33;8.10;;;3.17;;
4317;SDS011;2172;53.576;9.934;2022-08-03T14:50:00;4.73;;;3.20;;
4317;SDS011;2172;53.576;9.934;2022-08-03T14:52:29;2.53;;;2.33;;
4317;SDS011;2172;53.576;9.934;2022-08-03T14:54:57;6.27;;;3.20;;
4317;SDS011;2172;53.576;9.934;2022-08-03T14:57:25;5.47;;;3.00;;
4317;SDS011;2172;53.576;9.934;2022-08-03T14:59:52;7.93;;;3.30;;
4317;SDS011;2172;53.576;9.934;2022-08-03T15:02:21;5.13;;;3.70;;
4317;SDS011;2172;53.576;9.934;2022-08-03T15:04:49;7.40;;;3.27;;
4317;SDS011;2172;53.576;9.934;2022-08-03T15:07:16;5.53;;;2.97;;
4317;SDS011;2172;53.576;9.934;2022-08-03T15:09:44;3.37;;;2.87;;
4317;SDS011;2172;53.576;9.934;2022-08-03T15:12:11;5.53;;;3.00;;
4317;SDS011;2172;53.576;9.934;2022-08-03T15:14:39;4.60;;;3.10;;
4317;SDS011;2172;53.576;9.934;2022-08-03T15:17:06;9.73;;;3.50;;
4317;SDS011;2172;53.576;9.934;2022-08-03T15:19:35;8.40;;;6.93;;
4317;SDS011;2172;53.576;9.934;2022-08-03T15:22:04;4.33;;;3.07;;
4317;SDS011;2172;53.576;9.934;2022-08-03T15:24:31;4.57;;;3.07;;
4317;SDS011;2172;53.576;9.934;2022-08-03T15:26:59;5.63;;;2.43;;
4317;SDS011;2172;53.576;9.934;2022-08-03T15:29:26;11.00;;;3.33;;